Time;durP1;ratioP1;P1;durP2;ratioP2;P2;SDS_P1;SDS_P2;PMS_P1;PMS_P2;Temp;Humidity;BMP_temperature;BMP_pressure;BME280_temperature;BME280_humidity;BME280_pressure;Samples;Min_cycle;Max_cycle;Signal;HPM_P1;HPM_P2
2022/01/19 00:01:55;;;;;;;36.37;20.30;;;;;;;2.77;93.28;103160.84;5215473;28;20026;-77
2022/01/19 00:04:26;;;;;;;33.80;20.33;;;;;;;2.75;94.04;103153.06;5214517;28;20050;-77
2022/01/19 00:06:57;;;;;;;35.60;20.77;;;;;;;2.50;94.74;103151.91;5214578;28;20048;-77
2022/01/19 00:09:29;;;;;;;32.77;17.43;;;;;;;2.42;94.85;103146.66;5214348;28;20041;-77
2022/01/19 00:12:00;;;;;;;29.13;17.10;;;;;;;2.45;94.93;103146.69;5219229;28;20034;-77
2022/01/19 00:14:31;;;;;;;29.37;16.23;;;;;;;2.68;94.04;103150.38;5214944;28;20033;-77
2022/01/19 00:17:02;;;;;;;34.60;16.63;;;;;;;2.84;94.26;103149.69;5215052;28;20427;-77
2022/01/19 00:19:34;;;;;;;28.93;16.40;;;;;;;2.59;92.33;103139.09;5214305;28;20030;-77
2022/01/19 00:22:05;;;;;;;26.23;16.90;;;;;;;2.80;92.07;103142.75;5213198;28;20038;-77
2022/01/19 00:24:36;;;;;;;29.80;16.47;;;;;;;2.60;93.05;103150.31;5213253;28;20034;-77
2022/01/19 00:27:08;;;;;;;27.97;17.63;;;;;;;2.62;92.87;103135.63;5214235;28;20030;-77
2022/01/19 00:29:39;;;;;;;35.13;17.57;;;;;;;2.43;93.45;103119.91;5214420;28;20053;-72
2022/01/19 00:32:10;;;;;;;34.63;17.70;;;;;;;2.34;94.04;103105.16;5213900;28;20032;-72
2022/01/19 00:34:41;;;;;;;27.87;16.27;;;;;;;2.24;95.26;103085.22;5215295;28;20044;-76
2022/01/19 00:37:13;;;;;;;32.13;17.23;;;;;;;2.10;94.95;103060.09;5213875;28;20026;-75
2022/01/19 00:39:44;;;;;;;29.23;15.47;;;;;;;2.30;94.77;103056.88;5213390;28;20491;-75
2022/01/19 00:42:15;;;;;;;47.23;19.10;;;;;;;2.10;95.57;103033.34;5214536;28;20036;-76
2022/01/19 00:44:47;;;;;;;42.87;18.77;;;;;;;2.04;95.88;103039.34;5214542;28;20034;-77
2022/01/19 00:47:18;;;;;;;35.40;17.63;;;;;;;2.02;95.53;103046.19;5213939;28;20062;-76
2022/01/19 00:49:50;;;;;;;43.17;19.03;;;;;;;2.12;95.35;103055.81;5214498;28;20022;-76
2022/01/19 00:52:21;;;;;;;39.63;17.20;;;;;;;2.07;94.05;103070.38;5212731;28;20069;-76
2022/01/19 00:54:53;;;;;;;44.23;20.37;;;;;;;2.26;93.67;103075.78;5213023;28;20030;-76
2022/01/19 00:57:24;;;;;;;45.07;20.47;;;;;;;2.41;93.35;103068.19;5213687;28;20040;-76
2022/01/19 00:59:55;;;;;;;39.10;18.87;;;;;;;2.16;93.56;103079.97;5213323;28;20030;-76
2022/01/19 01:02:26;;;;;;;40.43;19.07;;;;;;;2.08;94.67;103085.03;5213812;28;20076;-77
2022/01/19 01:04:58;;;;;;;35.23;17.33;;;;;;;2.09;94.61;103080.75;5214645;28;20049;-77
2022/01/19 01:07:33;;;;;;;34.10;16.27;;;;;;;2.00;94.54;103071.16;5213078;28;20030;-75
2022/01/19 01:10:06;;;;;;;39.07;18.20;;;;;;;1.96;95.42;103049.56;5213186;28;20072;-75
2022/01/19 01:12:46;;;;;;;41.47;19.27;;;;;;;1.99;96.16;103051.34;5213808;28;20132;-76
2022/01/19 01:20:37;;;;;;;37.63;16.97;;;;;;;1.83;97.48;103027.91;5213421;28;20385;-76
2022/01/19 01:23:09;;;;;;;31.97;16.90;;;;;;;1.75;96.53;103019.16;5213079;28;20527;-77
2022/01/19 01:25:41;;;;;;;41.07;18.37;;;;;;;1.60;97.36;103015.53;5211888;28;20018;-75
2022/01/19 01:28:13;;;;;;;35.37;18.50;;;;;;;1.49;97.36;103001.59;5213128;28;20038;-75
2022/01/19 01:30:46;;;;;;;35.90;16.87;;;;;;;1.52;96.73;102987.03;5212724;28;20026;-74
2022/01/19 01:33:17;;;;;;;34.50;17.50;;;;;;;1.43;96.61;102987.75;5213657;28;20025;-74
2022/01/19 01:35:49;;;;;;;32.10;18.07;;;;;;;1.47;97.53;102977.50;5211670;28;20033;-76
2022/01/19 01:38:20;;;;;;;31.20;17.23;;;;;;;1.43;97.77;102974.84;5213266;28;20124;-76
2022/01/19 01:40:52;;;;;;;30.57;17.73;;;;;;;1.37;97.70;102954.13;5210858;28;20022;-76
2022/01/19 01:43:23;;;;;;;31.33;19.30;;;;;;;1.37;97.64;102941.22;5213251;28;20046;-76
2022/01/19 01:46:01;;;;;;;28.83;18.33;;;;;;;1.47;98.13;102946.50;5212844;28;20032;-76
2022/01/19 01:48:41;;;;;;;28.67;18.07;;;;;;;1.42;97.86;102939.56;5213074;28;20028;-76
2022/01/19 01:54:05;;;;;;;48.63;24.30;;;;;;;1.62;100.00;102932.91;5213598;28;20121;-75
2022/01/19 01:56:37;;;;;;;39.40;23.13;;;;;;;1.76;99.68;102940.81;5212420;28;20104;-75
2022/01/19 01:59:10;;;;;;;37.97;21.63;;;;;;;1.79;97.26;102946.00;5211314;28;20608;-75
2022/01/19 02:01:41;;;;;;;38.57;20.53;;;;;;;1.84;96.51;102946.94;5213195;28;20022;-76
2022/01/19 02:04:13;;;;;;;39.57;22.43;;;;;;;1.79;95.82;102948.59;5213164;28;20405;-75
2022/01/19 02:09:37;;;;;;;36.40;19.93;;;;;;;1.59;94.77;102936.28;5212118;28;20053;-76
2022/01/19 02:23:51;;;;;;;33.93;20.17;;;;;;;1.57;95.67;102901.88;5189299;28;20816;-76
2022/01/19 02:29:39;;;;;;;35.37;20.50;;;;;;;1.85;95.82;102902.13;5209011;28;20034;-76
2022/01/19 02:40:37;;;;;;;39.43;21.60;;;;;;;1.29;96.95;102842.16;5190967;28;20046;-75
2022/01/19 02:43:19;;;;;;;35.23;20.83;;;;;;;1.28;96.74;102837.81;5205894;28;20022;-75
2022/01/19 02:51:30;;;;;;;37.73;20.80;;;;;;;1.29;95.48;102811.16;5211515;28;20509;-75
2022/01/19 02:54:02;;;;;;;39.33;21.13;;;;;;;1.56;95.37;102817.47;5211471;28;20058;-75
2022/01/19 02:56:37;;;;;;;33.70;21.80;;;;;;;1.40;94.80;102800.94;5210717;28;20072;-75
2022/01/19 02:59:20;;;;;;;36.43;21.90;;;;;;;1.61;95.05;102831.28;5212039;28;20507;-75
2022/01/19 03:10:32;;;;;;;36.50;21.73;;;;;;;1.44;94.69;102793.25;5174077;28;20081;-75
2022/01/19 03:13:04;;;;;;;36.27;23.57;;;;;;;1.40;93.65;102801.81;5211925;28;20652;-75
2022/01/19 03:15:35;;;;;;;36.10;21.37;;;;;;;1.24;94.50;102792.19;5211402;28;20010;-75
2022/01/19 03:18:06;;;;;;;34.60;21.27;;;;;;;1.26;93.45;102795.63;5212291;28;20025;-75
2022/01/19 03:20:38;;;;;;;40.50;24.17;;;;;;;1.23;94.89;102782.69;5211135;28;20014;-75
2022/01/19 03:23:19;;;;;;;34.50;21.90;;;;;;;1.13;94.32;102777.44;5211053;28;20038;-75
2022/01/19 03:25:53;;;;;;;35.03;22.03;;;;;;;1.42;94.95;102776.88;5210492;28;20093;-75
2022/01/19 03:28:24;;;;;;;32.23;22.00;;;;;;;1.44;93.87;102764.84;5209876;28;20121;-75
2022/01/19 03:30:55;;;;;;;33.17;22.33;;;;;;;1.50;94.51;102760.59;5211459;28;20532;-76
2022/01/19 03:33:27;;;;;;;39.10;23.43;;;;;;;1.44;94.14;102762.28;5211824;28;20026;-75
2022/01/19 03:35:58;;;;;;;34.67;21.33;;;;;;;1.42;93.68;102745.88;5211168;28;20034;-76
2022/01/19 03:38:30;;;;;;;33.63;20.87;;;;;;;1.31;93.83;102752.63;5211718;28;20041;-75
2022/01/19 03:41:01;;;;;;;32.10;20.63;;;;;;;1.17;94.81;102747.38;5209942;28;20024;-75
2022/01/19 03:43:32;;;;;;;33.27;22.23;;;;;;;1.29;94.91;102744.03;5211162;28;20088;-75
2022/01/19 03:46:12;;;;;;;35.17;21.37;;;;;;;1.37;94.34;102746.69;5211872;28;20025;-75
2022/01/19 03:48:56;;;;;;;39.30;22.70;;;;;;;1.28;93.95;102739.72;5211403;28;20026;-75
2022/01/19 03:51:27;;;;;;;32.97;21.37;;;;;;;1.18;94.36;102710.38;5203069;28;20492;-75
2022/01/19 03:53:58;;;;;;;33.83;21.87;;;;;;;1.35;93.85;102726.00;5210421;28;20033;-75
2022/01/19 03:56:30;;;;;;;36.67;22.57;;;;;;;1.13;97.26;102700.00;5211347;28;20109;-75
2022/01/19 03:59:01;;;;;;;35.77;22.33;;;;;;;1.23;97.95;102706.13;5210710;28;20026;-76
2022/01/19 04:01:32;;;;;;;37.03;21.17;;;;;;;1.25;95.84;102700.97;5210612;28;20389;-75
2022/01/19 04:07:08;;;;;;;41.23;22.17;;;;;;;1.27;95.71;102701.84;5196389;28;20437;-75
2022/01/19 04:09:40;;;;;;;43.07;23.90;;;;;;;1.38;96.85;102702.81;5194064;28;20035;-75
2022/01/19 04:12:18;;;;;;;46.17;26.90;;;;;;;1.14;98.34;102690.53;5192862;28;20018;-74
2022/01/19 04:14:49;;;;;;;41.00;25.13;;;;;;;1.32;98.80;102702.75;5195119;28;20026;-75
2022/01/19 04:17:20;;;;;;;45.47;26.20;;;;;;;1.23;99.53;102697.50;5200701;28;20026;-75
2022/01/19 04:19:52;;;;;;;41.83;25.67;;;;;;;1.17;100.00;102688.84;5230303;28;20026;-75
2022/01/19 04:22:23;;;;;;;42.40;26.73;;;;;;;1.14;100.00;102678.50;5214417;28;20065;-75
2022/01/19 04:24:54;;;;;;;49.80;29.83;;;;;;;1.13;100.00;102681.06;5213655;28;20119;-75
2022/01/19 04:30:11;;;;;;;52.60;28.73;;;;;;;1.31;100.00;102682.94;5214748;28;20042;-75
2022/01/19 04:35:23;;;;;;;43.87;25.97;;;;;;;1.31;100.00;102693.25;5213367;28;20775;-75
2022/01/19 04:54:45;;;;;;;57.30;33.13;;;;;;;1.18;100.00;102680.28;5192873;28;20030;-74
2022/01/19 05:05:36;;;;;;;60.33;32.73;;;;;;;1.10;100.00;102662.97;5208705;28;20046;-74
2022/01/19 05:08:36;;;;;;;56.20;33.17;;;;;;;1.22;100.00;102668.25;5213826;28;20042;-75
2022/01/19 05:13:54;;;;;;;60.87;33.47;;;;;;;1.22;100.00;102676.00;5214732;28;20034;-75
2022/01/19 05:16:26;;;;;;;60.67;33.73;;;;;;;1.22;100.00;102672.53;5213566;28;20338;-75
2022/01/19 05:18:57;;;;;;;55.93;32.83;;;;;;;1.05;100.00;102678.41;5213802;28;20014;-75
2022/01/19 05:21:28;;;;;;;59.87;33.57;;;;;;;1.12;100.00;102674.19;5208531;28;20049;-74
2022/01/19 05:24:04;;;;;;;55.77;30.10;;;;;;;1.05;100.00;102671.53;5191088;28;20121;-75
2022/01/19 05:26:36;;;;;;;53.77;32.37;;;;;;;0.96;100.00;102671.47;5191939;28;20038;-74
2022/01/19 05:29:08;;;;;;;52.17;32.13;;;;;;;1.01;100.00;102680.09;5192075;28;20033;-75
2022/01/19 05:31:39;;;;;;;47.90;30.63;;;;;;;1.05;100.00;102684.44;5201581;28;20034;-72
2022/01/19 05:34:10;;;;;;;54.37;30.13;;;;;;;0.99;100.00;102680.94;5213178;28;20033;-74
2022/01/19 05:36:42;;;;;;;50.77;30.47;;;;;;;0.88;100.00;102655.88;5213138;28;20656;-74
2022/01/19 05:39:13;;;;;;;54.43;32.43;;;;;;;1.03;100.00;102672.38;5212150;28;20025;-74
2022/01/19 05:41:44;;;;;;;47.33;29.43;;;;;;;1.14;100.00;102673.34;5212700;28;20109;-75
2022/01/19 05:44:15;;;;;;;46.93;28.93;;;;;;;1.16;100.00;102671.63;5213295;28;20026;-75
2022/01/19 05:46:47;;;;;;;44.83;29.83;;;;;;;1.12;100.00;102669.03;5212767;28;20560;-75
2022/01/19 05:49:18;;;;;;;46.13;28.30;;;;;;;1.23;100.00;102669.09;5213499;28;20428;-74
2022/01/19 05:51:49;;;;;;;45.60;28.43;;;;;;;1.15;100.00;102664.72;5213154;28;20129;-75
2022/01/19 05:54:21;;;;;;;43.00;26.97;;;;;;;1.26;100.00;102666.53;5211772;28;20042;-75
2022/01/19 05:56:53;;;;;;;42.53;28.60;;;;;;;1.28;100.00;102657.97;5212850;28;20029;-75
2022/01/19 05:59:24;;;;;;;45.93;28.33;;;;;;;1.21;100.00;102661.34;5212629;28;20022;-74
2022/01/19 06:01:55;;;;;;;40.23;25.90;;;;;;;1.28;100.00;102657.97;5212749;28;20037;-75
2022/01/19 06:04:27;;;;;;;40.80;28.23;;;;;;;1.33;100.00;102655.41;5212777;28;20113;-75
2022/01/19 06:07:01;;;;;;;46.30;28.30;;;;;;;1.37;100.00;102662.34;5212311;28;20570;-75
2022/01/19 06:09:47;;;;;;;37.90;27.08;;;;;;;1.29;100.00;102659.69;5212698;28;20026;-75
2022/01/19 06:12:19;;;;;;;37.70;25.33;;;;;;;1.44;100.00;102652.94;5216619;28;20093;-75
2022/01/19 06:14:50;;;;;;;41.53;26.53;;;;;;;1.39;100.00;102640.00;5212734;28;20105;-75
2022/01/19 06:17:21;;;;;;;40.47;28.13;;;;;;;1.37;100.00;102646.88;5211278;28;20034;-75
2022/01/19 06:19:53;;;;;;;42.37;27.53;;;;;;;1.47;100.00;102647.78;5211078;28;20040;-75
2022/01/19 06:22:24;;;;;;;41.57;27.07;;;;;;;1.38;100.00;102635.66;5211878;28;20030;-75
2022/01/19 06:24:57;;;;;;;35.90;24.93;;;;;;;1.45;100.00;102628.84;5210527;28;20076;-75
2022/01/19 06:27:28;;;;;;;41.87;27.03;;;;;;;1.45;100.00;102639.16;5211893;28;20042;-75
2022/01/19 06:29:59;;;;;;;41.17;25.17;;;;;;;1.52;100.00;102632.34;5211601;28;20028;-74
2022/01/19 06:32:30;;;;;;;38.60;26.77;;;;;;;1.49;100.00;102624.56;5208609;28;20037;-73
2022/01/19 06:35:02;;;;;;;36.23;24.40;;;;;;;1.54;100.00;102628.03;5196128;28;20040;-72
2022/01/19 06:37:33;;;;;;;35.03;24.57;;;;;;;1.56;100.00;102611.72;5210863;28;20040;-71
2022/01/19 06:40:07;;;;;;;37.47;25.83;;;;;;;1.56;100.00;102605.69;5211347;28;20041;-74
2022/01/19 06:42:39;;;;;;;36.03;25.20;;;;;;;1.57;100.00;102607.41;5211580;28;20505;-72
2022/01/19 06:45:12;;;;;;;41.13;24.53;;;;;;;1.51;100.00;102604.78;5210982;28;20030;-72
2022/01/19 06:47:43;;;;;;;39.43;24.30;;;;;;;1.54;100.00;102597.03;5211049;28;20034;-73
2022/01/19 06:50:19;;;;;;;37.67;25.27;;;;;;;1.54;100.00;102597.03;5208471;28;20153;-74
2022/01/19 06:52:50;;;;;;;36.73;24.83;;;;;;;1.63;100.00;102597.13;5210122;28;20026;-75
2022/01/19 06:55:22;;;;;;;41.70;25.50;;;;;;;1.61;100.00;102585.03;5210096;28;20018;-74
2022/01/19 06:57:53;;;;;;;40.37;25.97;;;;;;;1.60;100.00;102585.91;5211806;28;20045;-74
2022/01/19 07:00:24;;;;;;;35.33;25.63;;;;;;;1.60;100.00;102576.44;5211600;28;20160;-74
2022/01/19 07:02:56;;;;;;;38.67;23.60;;;;;;;1.58;100.00;102575.56;5210725;28;20034;-74
2022/01/19 07:05:27;;;;;;;34.77;24.13;;;;;;;1.61;100.00;102575.56;5211000;28;20034;-74
2022/01/19 07:07:58;;;;;;;36.27;23.67;;;;;;;1.64;100.00;102573.00;5210372;28;20030;-74
2022/01/19 07:10:31;;;;;;;32.87;23.23;;;;;;;1.60;100.00;102576.44;5210139;28;20026;-73
2022/01/19 07:13:04;;;;;;;32.90;23.80;;;;;;;1.65;100.00;102574.75;5211452;28;20029;-75
2022/01/19 07:15:36;;;;;;;35.53;24.40;;;;;;;1.65;100.00;102568.72;5211125;28;20504;-74
2022/01/19 07:18:08;;;;;;;35.43;22.60;;;;;;;1.66;100.00;102579.03;5211215;28;20030;-73
2022/01/19 07:20:39;;;;;;;37.40;26.03;;;;;;;1.63;100.00;102560.97;5209311;28;20032;-71
2022/01/19 07:23:10;;;;;;;36.40;22.43;;;;;;;1.74;100.00;102566.19;5210555;28;20018;-73
2022/01/19 07:25:42;;;;;;;35.67;23.40;;;;;;;1.76;100.00;102566.19;5208905;28;20014;-74
2022/01/19 07:28:13;;;;;;;33.20;22.17;;;;;;;1.79;100.00;102569.66;5210576;28;20056;-76
2022/01/19 07:30:44;;;;;;;35.50;22.40;;;;;;;1.80;100.00;102567.91;5210465;28;20041;-73
2022/01/19 07:33:16;;;;;;;30.33;21.90;;;;;;;1.75;100.00;102557.56;5209563;28;20030;-73
2022/01/19 07:35:51;;;;;;;33.37;23.20;;;;;;;1.81;100.00;102567.09;5209668;28;20048;-73
2022/01/19 07:38:23;;;;;;;30.67;23.90;;;;;;;1.84;100.00;102563.63;5210079;28;20388;-73
2022/01/19 07:40:54;;;;;;;37.47;23.57;;;;;;;1.76;100.00;102556.69;5210801;28;20492;-74
2022/01/19 07:43:26;;;;;;;28.43;20.60;;;;;;;1.77;100.00;102552.41;5210706;28;20033;-73
2022/01/19 07:45:57;;;;;;;32.63;22.73;;;;;;;1.82;100.00;102553.28;5208263;28;20146;-74
2022/01/19 07:48:28;;;;;;;33.67;22.13;;;;;;;1.85;100.00;102550.72;5214200;28;20591;-75
2022/01/19 07:50:59;;;;;;;33.70;23.47;;;;;;;1.84;100.00;102543.84;5215318;28;20033;-75
2022/01/19 07:53:31;;;;;;;31.83;22.73;;;;;;;1.81;100.00;102549.88;5214299;28;20022;-75
2022/01/19 07:56:03;;;;;;;32.33;22.67;;;;;;;1.88;100.00;102550.75;5214765;28;20500;-74
2022/01/19 07:58:34;;;;;;;36.87;24.77;;;;;;;1.78;100.00;102528.31;5195226;28;20030;-74
2022/01/19 08:01:06;;;;;;;32.53;22.73;;;;;;;1.85;100.00;102545.56;5205845;28;20029;-73
2022/01/19 08:03:37;;;;;;;36.43;24.13;;;;;;;1.81;100.00;102543.81;5214379;28;20030;-74
2022/01/19 08:06:08;;;;;;;34.43;22.30;;;;;;;1.90;100.00;102546.44;5214432;28;20065;-73
2022/01/19 08:08:39;;;;;;;29.63;23.20;;;;;;;1.97;100.00;102538.72;5213262;28;20033;-73
2022/01/19 08:11:11;;;;;;;30.53;22.77;;;;;;;1.99;100.00;102537.00;5214381;28;20088;-74
2022/01/19 08:13:42;;;;;;;34.03;23.80;;;;;;;2.01;100.00;102541.31;5215441;28;20109;-73
2022/01/19 08:16:13;;;;;;;34.53;23.37;;;;;;;2.06;100.00;102543.91;5213740;28;20088;-75
2022/01/19 08:18:45;;;;;;;30.10;22.03;;;;;;;2.01;100.00;102527.53;5215094;28;20062;-75
2022/01/19 08:21:16;;;;;;;31.00;21.37;;;;;;;2.01;100.00;102530.09;5215336;28;20050;-73
2022/01/19 08:23:47;;;;;;;32.13;22.80;;;;;;;2.00;100.00;102525.81;5215520;28;20032;-77
2022/01/19 08:26:19;;;;;;;30.60;22.23;;;;;;;2.06;100.00;102518.06;5217574;28;20408;-75
2022/01/19 08:28:50;;;;;;;32.07;21.63;;;;;;;2.07;100.00;102524.97;5203683;28;20037;-79
2022/01/19 08:31:21;;;;;;;30.50;23.87;;;;;;;2.04;100.00;102512.03;5194822;28;20034;-77
2022/01/19 08:33:52;;;;;;;30.27;22.60;;;;;;;2.03;100.00;102510.31;5193691;28;20103;-76
2022/01/19 08:36:24;;;;;;;32.30;22.50;;;;;;;2.08;100.00;102515.50;5195260;28;20496;-80
2022/01/19 08:38:56;;;;;;;30.17;22.00;;;;;;;2.07;100.00;102512.06;5193471;28;20022;-82
2022/01/19 08:41:27;;;;;;;31.23;21.00;;;;;;;2.10;100.00;102518.94;5198469;28;20149;-81
2022/01/19 08:43:59;;;;;;;34.40;22.27;;;;;;;2.05;100.00;102512.06;5196925;28;20346;-80
2022/01/19 08:46:30;;;;;;;32.10;22.70;;;;;;;2.12;100.00;102506.88;5190930;28;20097;-81
2022/01/19 08:49:02;;;;;;;28.27;21.43;;;;;;;2.16;100.00;102512.06;5194077;28;20476;-81
2022/01/19 08:51:33;;;;;;;29.20;22.83;;;;;;;2.13;100.00;102498.28;5195953;28;20045;-77
2022/01/19 08:54:04;;;;;;;32.90;22.60;;;;;;;2.18;100.00;102502.59;5190074;28;20137;-74
2022/01/19 08:56:35;;;;;;;30.23;22.37;;;;;;;2.16;100.00;102499.13;5188639;28;20489;-78
2022/01/19 08:59:07;;;;;;;28.33;21.40;;;;;;;2.11;100.00;102475.00;5193210;28;20120;-81
2022/01/19 09:01:38;;;;;;;29.20;21.83;;;;;;;2.25;100.00;102487.94;5191753;28;21221;-77
2022/01/19 09:04:09;;;;;;;32.33;22.63;;;;;;;2.28;100.00;102492.28;5191455;28;20045;-76
2022/01/19 09:06:41;;;;;;;31.20;22.67;;;;;;;2.27;100.00;102486.25;5192108;28;20037;-75
2022/01/19 09:09:12;;;;;;;30.13;20.67;;;;;;;2.30;100.00;102485.41;5192299;28;20037;-76
2022/01/19 09:11:43;;;;;;;26.80;20.57;;;;;;;2.32;100.00;102486.25;5192944;28;20038;-81
2022/01/19 09:14:15;;;;;;;29.17;20.40;;;;;;;2.32;100.00;102468.16;5191280;28;20022;-79
2022/01/19 09:16:49;;;;;;;30.20;21.73;;;;;;;2.32;100.00;102473.34;5190496;28;20532;-75
2022/01/19 09:19:21;;;;;;;25.63;20.73;;;;;;;2.34;100.00;102470.75;5187716;28;20048;-75
2022/01/19 09:21:55;;;;;;;32.43;21.17;;;;;;;2.36;100.00;102472.47;5182773;28;20465;-73
2022/01/19 09:24:26;;;;;;;;;;;;;;;2.56;100.00;102473.34;5202879;28;20637;-73
2022/01/19 09:26:58;;;;;;;29.00;20.43;;;;;;;2.36;100.00;102472.47;5191060;28;19933;-73
2022/01/19 09:29:29;;;;;;;26.50;20.83;;;;;;;2.38;100.00;102475.91;5184068;28;20081;-72
2022/01/19 09:32:01;;;;;;;27.10;20.43;;;;;;;2.48;100.00;102473.34;5192257;28;20065;-73
2022/01/19 09:34:32;;;;;;;29.67;21.07;;;;;;;2.45;100.00;102465.56;5184030;28;20022;-76
2022/01/19 09:37:04;;;;;;;32.73;20.40;;;;;;;2.47;100.00;102464.72;5186857;28;20033;-76
2022/01/19 09:39:36;;;;;;;30.50;20.93;;;;;;;2.37;100.00;102444.88;5195686;28;20038;-77
2022/01/19 09:42:07;;;;;;;28.37;21.03;;;;;;;2.47;100.00;102461.25;5181832;28;20039;-75
2022/01/19 09:44:39;;;;;;;28.43;21.77;;;;;;;2.41;100.00;102433.66;5190704;28;20030;-75
2022/01/19 09:47:11;;;;;;;29.70;21.57;;;;;;;2.51;100.00;102448.31;5185649;28;20042;-73
2022/01/19 09:49:43;;;;;;;30.33;23.53;;;;;;;2.54;100.00;102434.53;5182690;28;20725;-74
2022/01/19 09:52:14;;;;;;;26.97;20.63;;;;;;;2.53;100.00;102422.47;5199152;28;20131;-73
2022/01/19 09:54:45;;;;;;;26.80;21.30;;;;;;;2.58;100.00;102422.47;5184199;28;20516;-73
2022/01/19 09:57:17;;;;;;;28.77;21.07;;;;;;;2.61;100.00;102417.28;5181112;28;20144;-74
2022/01/19 09:59:49;;;;;;;31.30;21.47;;;;;;;2.60;100.00;102415.56;5182619;28;20038;-75
2022/01/19 10:02:20;;;;;;;28.57;21.73;;;;;;;2.63;100.00;102408.69;5184269;28;20397;-75
2022/01/19 10:04:51;;;;;;;27.73;20.77;;;;;;;2.64;100.00;102407.81;5201911;28;20049;-75
2022/01/19 10:07:27;;;;;;;30.13;21.57;;;;;;;2.63;100.00;102398.34;5199459;28;20046;-75
2022/01/19 10:10:01;;;;;;;24.40;18.87;;;;;;;2.63;100.00;102397.47;5182928;28;20705;-74
2022/01/19 10:18:29;;;;;;;29.93;20.60;;;;;;;2.81;100.00;102398.31;5181371;28;20536;-73
2022/01/19 10:21:12;;;;;;;26.77;19.93;;;;;;;2.83;100.00;102400.00;5200552;28;20061;-73
2022/01/19 10:23:52;;;;;;;25.20;19.07;;;;;;;2.85;100.00;102402.59;5182969;28;20073;-73
2022/01/19 10:26:26;;;;;;;26.17;19.97;;;;;;;2.86;100.00;102397.41;5180597;28;21637;-72
2022/01/19 10:29:07;;;;;;;25.33;18.65;;;;;;;2.93;100.00;102400.00;5181084;28;20490;-73
2022/01/19 10:31:43;;;;;;;24.90;20.37;;;;;;;2.85;100.00;102390.53;5181029;28;20037;-72
2022/01/19 10:34:24;;;;;;;24.50;17.83;;;;;;;2.93;100.00;102384.47;5181265;28;20042;-73
2022/01/19 10:37:00;;;;;;;25.80;18.40;;;;;;;2.93;100.00;102381.88;5181705;28;20023;-73
2022/01/19 10:39:46;;;;;;;24.83;18.37;;;;;;;2.96;100.00;102367.19;5180531;28;20030;-72
2022/01/19 10:42:19;;;;;;;27.97;19.43;;;;;;;2.93;100.00;102356.00;5178957;28;20081;-74
2022/01/19 10:44:58;;;;;;;27.00;20.17;;;;;;;3.06;100.00;102365.44;5183800;28;20569;-73
2022/01/19 10:47:44;;;;;;;27.17;18.83;;;;;;;3.07;100.00;102353.38;5192463;28;20049;-74
2022/01/19 10:50:23;;;;;;;25.07;18.77;;;;;;;3.09;100.00;102362.84;5186867;28;20136;-74
2022/01/19 10:52:56;;;;;;;26.43;19.37;;;;;;;3.11;100.00;102353.34;5186465;28;20130;-74
2022/01/19 10:55:41;;;;;;;28.65;20.73;;;;;;;3.16;100.00;102362.81;5182526;28;20031;-75
2022/01/19 10:58:15;;;;;;;26.90;20.67;;;;;;;3.12;100.00;102373.19;5185557;28;20053;-73
2022/01/19 11:00:51;;;;;;;27.20;20.10;;;;;;;3.12;100.00;102352.50;5180258;28;20935;-75
2022/01/19 11:03:26;;;;;;;26.03;21.57;;;;;;;3.12;100.00;102352.50;5185567;28;20120;-76
2022/01/19 11:06:00;;;;;;;25.80;19.45;;;;;;;3.23;100.00;102346.41;5181562;28;20140;-79
2022/01/19 11:08:33;;;;;;;27.05;20.60;;;;;;;3.13;100.00;102328.31;5181056;28;20044;-78
2022/01/19 11:11:04;;;;;;;30.30;20.87;;;;;;;3.14;100.00;102342.97;5186005;28;20022;-78
2022/01/19 11:13:40;;;;;;;28.67;20.87;;;;;;;3.21;100.00;102342.97;5202985;28;20951;-77
2022/01/19 11:16:11;;;;;;;28.30;21.37;;;;;;;3.19;100.00;102334.31;5184721;28;20037;-77
2022/01/19 11:18:44;;;;;;;29.90;22.13;;;;;;;3.27;100.00;102324.78;5182799;28;20045;-79
2022/01/19 11:21:20;;;;;;;26.60;19.97;;;;;;;3.25;100.00;102321.34;5183552;28;20037;-79
2022/01/19 11:23:54;;;;;;;25.13;20.50;;;;;;;3.24;100.00;102315.31;5188014;28;20125;-77
2022/01/19 11:26:30;;;;;;;26.92;21.77;;;;;;;3.32;100.00;102312.66;5200108;28;20061;-78
2022/01/19 11:29:18;;;;;;;30.10;21.90;;;;;;;3.29;100.00;102306.66;5196083;28;20042;-76
2022/01/19 11:31:53;;;;;;;28.60;22.13;;;;;;;3.29;100.00;102304.06;5186877;28;20045;-76
2022/01/19 11:35:02;;;;;;;27.70;21.92;;;;;;;3.39;100.00;102298.81;5185535;28;20033;-75
2022/01/19 11:37:43;;;;;;;29.10;21.70;;;;;;;3.33;100.00;102277.28;5134727;29;20046;-74
2022/01/19 11:40:22;;;;;;;31.73;22.03;;;;;;;3.31;100.00;102266.94;5191765;28;20038;-74
2022/01/19 11:43:17;;;;;;;27.60;20.77;;;;;;;3.41;100.00;102274.63;5186736;28;20025;-78
2022/01/19 11:45:48;;;;;;;29.98;23.20;;;;;;;3.32;100.00;102276.41;5186054;28;20092;-77
2022/01/19 11:48:23;;;;;;;31.77;23.63;;;;;;;3.21;100.00;102247.16;5185533;28;20448;-77
2022/01/19 11:51:23;;;;;;;32.75;22.02;;;;;;;3.31;100.00;102259.16;5188962;28;20030;-78
2022/01/19 11:54:16;;;;;;;28.60;22.47;;;;;;;3.32;100.00;102247.06;5188682;28;20048;-77
2022/01/19 11:57:02;;;;;;;30.23;21.50;;;;;;;3.44;99.99;102246.97;5190366;28;20044;-77
2022/01/19 11:59:48;;;;;;;31.07;23.90;;;;;;;3.34;100.00;102245.31;5191483;28;20038;-78
2022/01/19 12:02:28;;;;;;;29.77;23.40;;;;;;;3.36;100.00;102247.06;5188047;28;20928;-78
2022/01/19 12:05:14;;;;;;;33.23;24.77;;;;;;;3.29;100.00;102222.06;5191245;28;20050;-75
2022/01/19 12:07:57;;;;;;;33.70;24.67;;;;;;;3.41;100.00;102217.66;5188690;28;20518;-72
2022/01/19 12:10:30;;;;;;;36.43;25.23;;;;;;;3.38;100.00;102229.78;5187680;28;20041;-75
2022/01/19 12:19:08;;;;;;;37.17;26.70;;;;;;;3.39;100.00;102217.66;5189918;28;20037;-78
2022/01/19 12:21:55;;;;;;;33.53;26.63;;;;;;;3.43;100.00;102200.38;5189950;28;20088;-75
2022/01/19 12:24:29;;;;;;;40.57;28.13;;;;;;;3.38;100.00;102203.88;5196464;28;20212;-75
2022/01/19 12:27:06;;;;;;;36.85;27.58;;;;;;;3.50;100.00;102199.47;5189981;28;20125;-77
2022/01/19 12:29:41;;;;;;;41.57;29.20;;;;;;;3.51;100.00;102183.03;5193753;28;20393;-76
2022/01/19 12:32:15;;;;;;;40.93;29.47;;;;;;;3.58;100.00;102178.69;5184961;28;20030;-76
2022/01/19 12:35:17;;;;;;;42.30;30.20;;;;;;;3.59;100.00;102178.66;5187010;28;20061;-78
2022/01/19 12:37:59;;;;;;;44.73;31.50;;;;;;;3.61;100.00;102189.00;5185233;28;20440;-73
2022/01/19 12:40:42;;;;;;;38.03;29.20;;;;;;;3.71;99.53;102184.59;5183179;28;20030;-74
2022/01/19 12:43:29;;;;;;;43.73;31.10;;;;;;;3.69;98.76;102175.97;5187678;28;20117;-73
2022/01/19 12:46:04;;;;;;;43.37;30.67;;;;;;;3.67;98.39;102167.34;5187983;28;20034;-73
2022/01/19 12:48:38;;;;;;;44.07;31.07;;;;;;;3.69;99.39;102163.03;5186020;28;20034;-72
2022/01/19 12:51:33;;;;;;;38.35;30.50;;;;;;;3.73;99.52;102147.44;5200112;28;20045;-73
2022/01/19 12:54:05;;;;;;;42.47;32.05;;;;;;;3.66;98.88;102131.97;5186123;28;20027;-72
2022/01/19 12:56:36;;;;;;;40.20;30.30;;;;;;;3.75;98.40;102137.91;5182519;28;20025;-72
2022/01/19 12:59:09;;;;;;;40.23;30.30;;;;;;;3.77;98.32;102135.28;5186288;28;20156;-73
2022/01/19 13:01:42;;;;;;;37.17;30.27;;;;;;;3.82;98.17;102141.28;5185364;28;20026;-73
2022/01/19 13:04:29;;;;;;;45.40;29.85;;;;;;;3.87;97.62;102129.13;5184041;28;20113;-73
2022/01/19 13:07:18;;;;;;;45.70;29.57;;;;;;;3.91;97.86;102121.34;5186054;28;20433;-72
2022/01/19 13:10:39;;;;;;;39.77;29.67;;;;;;;4.03;97.45;102135.91;5186108;28;20423;-71
2022/01/19 13:13:25;;;;;;;41.80;29.23;;;;;;;3.86;97.54;102121.38;5200659;28;20046;-73
2022/01/19 13:16:02;;;;;;;37.30;28.60;;;;;;;3.92;97.88;102118.72;5186567;28;20378;-72
2022/01/19 13:18:37;;;;;;;40.30;30.70;;;;;;;3.91;97.89;102117.00;5184078;28;20136;-71
2022/01/19 13:21:17;;;;;;;42.13;30.47;;;;;;;3.93;98.38;102116.97;5189161;28;20401;-72